Ana Sayfa
METAR-TAF:

METAR-TAF

Havaalanları :

Phetchabun, Tayland

Enlem: 16-40-33N, Boylam: 101-11-42E, yükseklik: 137 m

Güncel hava durumu gözlemi

Rapor saat 05:00 UTC de 50 dakika önce yapıldı.
Rüzgar kuzeydan 6 kt
Sıcaklık 28°C
Nem 40%
Basınç 1016 hPa
Görüş mesafesi: 7000 m

METAR: VTPB 120500Z 36006KT 7000 NSC 28/13 Q1016 NOSIG

Saat: 12:50 (05:50 UTC)

Tahmin

Rapor saat 05:00 UTC de 50 dakika önce yapıldı.
Ayın 12'si saat 06 UTC'den ayın 13'si saat 06 UTC'ye kadar geçerli Tahmin
Rüzgar doğu/kuzeydoğudan 5 kt
Görüş mesafesi: 7000 m

TAF: VTPB 120500Z 1206/1306 06005KT 7000 NSC

4.000'den fazla havaalanı için hava durumu gözlemleri ve tahminleri (METAR ve TAF raporları).

Kullanılabilir istasyonlar harita üzerinde sarı ve kırmızı noktalarla gösterilir.

İstasyonun adını görmek için fareyi noktanın üzerinde gezdirin.

Sonrasında hava gözlem ve tahminlerini görmek için tıklayın.

Haritayı değiştirmek için: yaklaştırmak için siyah artı işaretli yeşil düğmeye ve uzaklaştırmak için de eksi işaretli düğmeye hızla tıklayın; bitişik haritalar için yeşil okları kullanın.


METAR-TAF: